Time;durP1;ratioP1;P1;durP2;ratioP2;P2;SDS_P1;SDS_P2;PMS_P1;PMS_P2;Temp;Humidity;BMP_temperature;BMP_pressure;BME280_temperature;BME280_humidity;BME280_pressure;Samples;Min_cycle;Max_cycle;Signal;HPM_P1;HPM_P2
2022/06/01 00:01:38;;;;;;;15.00;10.52;;;17.50;78.50;;;;;;5073611;28;20033;-12
2022/06/01 00:04:04;;;;;;;15.77;10.93;;;17.40;78.60;;;;;;5073523;28;20112;-12
2022/06/01 00:06:30;;;;;;;16.67;10.90;;;17.50;78.90;;;;;;5073285;28;20086;-12
2022/06/01 00:08:55;;;;;;;16.70;10.77;;;17.50;79.00;;;;;;5073397;28;20020;-12
2022/06/01 00:11:21;;;;;;;16.90;10.50;;;17.50;79.20;;;;;;5073672;28;20024;-12
2022/06/01 00:13:47;;;;;;;14.68;10.18;;;17.50;79.10;;;;;;5073591;28;20388;-12
2022/06/01 00:16:13;;;;;;;16.02;10.23;;;17.40;79.00;;;;;;5073386;28;20546;-12
2022/06/01 00:18:40;;;;;;;13.38;9.70;;;17.40;78.80;;;;;;5073362;28;20536;-12
2022/06/01 00:21:07;;;;;;;16.10;10.30;;;17.40;78.90;;;;;;5073315;28;20491;-12
2022/06/01 00:23:33;;;;;;;18.15;10.05;;;17.40;79.00;;;;;;5073582;28;20027;-13
2022/06/01 00:26:00;;;;;;;15.77;10.27;;;17.30;79.10;;;;;;5073116;28;20033;-12
2022/06/01 00:28:26;;;;;;;15.85;11.10;;;17.30;79.20;;;;;;5073020;28;20028;-12
2022/06/01 00:30:51;;;;;;;14.43;10.60;;;17.30;79.40;;;;;;5073187;28;20116;-12
2022/06/01 00:33:17;;;;;;;18.65;11.95;;;17.20;79.40;;;;;;5073204;28;20499;-12
2022/06/01 00:35:43;;;;;;;16.98;11.07;;;17.30;79.40;;;;;;5073459;28;20028;-12
2022/06/01 00:38:09;;;;;;;15.55;10.77;;;17.30;79.50;;;;;;5073457;28;20476;-13
2022/06/01 00:40:36;;;;;;;15.82;10.60;;;17.30;79.60;;;;;;5073121;28;20067;-12
2022/06/01 00:43:35;;;;;;;15.00;9.88;;;17.30;79.50;;;;;;5072917;28;20079;-12
2022/06/01 00:46:02;;;;;;;16.55;11.52;;;17.20;79.60;;;;;;5072730;28;20492;-12
2022/06/01 00:48:31;;;;;;;15.57;10.10;;;17.20;79.50;;;;;;5073141;28;20051;-12
2022/06/01 00:50:57;;;;;;;14.68;11.13;;;17.10;79.50;;;;;;5073090;28;20032;-12
2022/06/01 00:53:27;;;;;;;16.35;11.70;;;17.10;79.60;;;;;;5073075;28;20062;-11
2022/06/01 00:56:07;;;;;;;15.73;11.00;;;17.10;79.90;;;;;;5073192;28;20103;-12
2022/06/01 00:58:37;;;;;;;15.77;10.25;;;17.00;79.90;;;;;;5072890;28;20016;-12
2022/06/01 01:01:05;;;;;;;20.65;13.05;;;17.00;79.90;;;;;;5072861;28;20222;-12
2022/06/01 01:03:36;;;;;;;19.27;12.85;;;17.00;80.20;;;;;;5072862;28;20439;-12
2022/06/01 01:06:19;;;;;;;16.65;10.57;;;16.90;80.30;;;;;;5072833;28;20127;-13
2022/06/01 01:08:48;;;;;;;14.77;10.77;;;16.90;80.30;;;;;;5073186;28;20032;-13
2022/06/01 01:11:15;;;;;;;17.95;10.45;;;16.80;80.20;;;;;;5072706;28;20090;-12
2022/06/01 01:13:45;;;;;;;20.27;12.02;;;16.70;80.40;;;;;;5072759;28;20025;-14
2022/06/01 01:16:14;;;;;;;19.88;12.35;;;16.70;80.80;;;;;;5073114;28;20033;-13
2022/06/01 01:18:43;;;;;;;20.33;13.27;;;16.70;80.60;;;;;;5072925;28;20025;-13
2022/06/01 01:21:09;;;;;;;20.73;14.32;;;16.60;80.70;;;;;;5072664;28;20024;-12
2022/06/01 01:23:47;;;;;;;18.40;11.25;;;16.60;81.00;;;;;;5072649;28;20035;-13
2022/06/01 01:26:14;;;;;;;18.10;11.40;;;16.60;81.10;;;;;;5072641;28;20025;-12
2022/06/01 01:28:42;;;;;;;20.50;13.32;;;16.50;81.10;;;;;;5072630;28;20090;-11
2022/06/01 01:31:20;;;;;;;18.70;11.50;;;16.50;81.10;;;;;;5072955;28;20021;-12
2022/06/01 01:33:49;;;;;;;20.92;11.60;;;16.50;81.30;;;;;;5072610;28;20025;-12
2022/06/01 01:36:17;;;;;;;22.30;11.90;;;16.50;81.20;;;;;;5072262;28;20031;-13
2022/06/01 01:39:07;;;;;;;16.92;11.85;;;16.50;81.30;;;;;;5072549;28;20056;-12
2022/06/01 01:41:43;;;;;;;17.67;11.77;;;16.50;81.40;;;;;;5072480;28;20020;-13
2022/06/01 01:44:16;;;;;;;16.17;10.55;;;16.50;81.50;;;;;;5072464;28;20507;-13
2022/06/01 01:46:47;;;;;;;17.10;11.25;;;16.50;81.60;;;;;;5072259;28;20048;-12
2022/06/01 01:49:17;;;;;;;16.42;11.20;;;16.50;81.60;;;;;;5072780;28;20074;-13
2022/06/01 01:51:44;;;;;;;19.95;12.70;;;16.50;81.60;;;;;;5072699;28;20021;-13
2022/06/01 01:54:31;;;;;;;16.88;11.48;;;16.50;81.60;;;;;;5072690;28;20024;-13
2022/06/01 01:57:31;;;;;;;17.92;10.93;;;16.50;81.90;;;;;;5076064;28;20020;-14
2022/06/01 02:00:20;;;;;;;14.00;8.90;;;16.50;81.70;;;;;;5076228;28;20104;-12
2022/06/01 02:03:08;;;;;;;16.17;11.10;;;16.50;81.60;;;;;;5075989;28;20044;-12
2022/06/01 02:06:12;;;;;;;15.75;10.27;;;16.50;81.50;;;;;;5076082;28;20032;-13
2022/06/01 02:08:57;;;;;;;21.67;12.05;;;16.50;81.50;;;;;;5075560;28;20488;-13
2022/06/01 02:14:35;;;;;;;17.10;11.35;;;16.50;81.50;;;;;;5075893;28;20035;-12
2022/06/01 02:17:05;;;;;;;20.90;11.50;;;16.50;81.50;;;;;;5076256;28;20021;-12
2022/06/01 02:19:47;;;;;;;18.35;12.05;;;16.50;81.70;;;;;;5076729;28;20531;-13
2022/06/01 02:22:14;;;;;;;24.05;12.70;;;16.50;81.80;;;;;;5075919;28;20103;-13
2022/06/01 02:24:42;;;;;;;20.42;11.80;;;16.50;81.80;;;;;;5075839;28;20103;-12
2022/06/01 02:27:09;;;;;;;19.80;11.18;;;16.40;81.80;;;;;;5075532;28;20119;-12
2022/06/01 02:29:48;;;;;;;23.58;12.98;;;16.40;81.70;;;;;;5075678;28;20025;-12
2022/06/01 02:32:16;;;;;;;19.33;12.10;;;16.30;81.90;;;;;;5075488;28;20037;-12
2022/06/01 02:34:44;;;;;;;18.65;11.32;;;16.20;81.90;;;;;;5076094;28;20025;-12
2022/06/01 02:37:14;;;;;;;16.10;10.93;;;16.10;81.80;;;;;;5073994;28;20016;-12
2022/06/01 02:39:43;;;;;;;21.05;11.05;;;16.00;82.00;;;;;;5075191;28;20017;-13
2022/06/01 02:42:28;;;;;;;20.67;12.65;;;15.90;82.10;;;;;;5075525;28;20037;-12
2022/06/01 02:44:56;;;;;;;20.23;12.45;;;15.90;82.50;;;;;;5075466;28;20083;-12
2022/06/01 02:47:23;;;;;;;19.40;11.20;;;15.80;83.00;;;;;;5074853;28;20049;-13
2022/06/01 02:49:49;;;;;;;14.30;9.35;;;15.70;82.40;;;;;;5075030;28;20481;-12
2022/06/01 02:52:17;;;;;;;19.80;11.20;;;15.70;82.50;;;;;;5075161;28;20032;-12
2022/06/01 02:54:42;;;;;;;19.58;12.60;;;15.70;82.70;;;;;;5074912;28;20028;-12
2022/06/01 02:57:09;;;;;;;17.88;11.27;;;15.70;82.90;;;;;;5075069;28;20028;-12
2022/06/01 02:59:36;;;;;;;18.55;11.43;;;15.80;82.80;;;;;;5074802;28;20499;-13
2022/06/01 03:02:06;;;;;;;20.20;13.65;;;15.90;82.60;;;;;;5075088;28;20107;-12
2022/06/01 03:04:32;;;;;;;20.95;13.50;;;15.90;82.90;;;;;;5074512;28;20488;-13
2022/06/01 03:06:58;;;;;;;18.50;12.15;;;15.90;83.20;;;;;;5074822;28;20392;-12
2022/06/01 03:09:24;;;;;;;21.95;11.77;;;15.90;82.80;;;;;;5073312;28;20111;-12
2022/06/01 03:11:50;;;;;;;20.00;13.65;;;16.00;83.00;;;;;;5074810;28;20028;-12
2022/06/01 03:14:16;;;;;;;24.42;16.23;;;16.00;82.80;;;;;;5074262;28;20056;-12
2022/06/01 03:16:42;;;;;;;19.38;12.85;;;16.00;83.00;;;;;;5074476;28;20025;-12
2022/06/01 03:19:08;;;;;;;19.33;12.50;;;16.00;83.00;;;;;;5074578;28;20028;-13
2022/06/01 03:21:33;;;;;;;24.13;14.65;;;16.10;82.90;;;;;;5074698;28;20021;-12
2022/06/01 03:24:01;;;;;;;24.42;13.98;;;16.10;83.00;;;;;;5074554;28;20508;-14
2022/06/01 03:26:27;;;;;;;24.85;15.13;;;16.20;82.90;;;;;;5074176;28;20037;-12
2022/06/01 03:28:53;;;;;;;18.60;12.52;;;16.20;83.20;;;;;;5074188;28;20020;-12
2022/06/01 03:31:19;;;;;;;27.90;13.82;;;16.20;83.20;;;;;;5074801;28;20035;-12
2022/06/01 03:33:45;;;;;;;24.05;13.93;;;16.20;83.50;;;;;;5074111;28;20108;-12
2022/06/01 03:36:10;;;;;;;20.85;12.68;;;16.20;83.50;;;;;;5072716;28;20127;-12
2022/06/01 03:38:37;;;;;;;26.00;16.02;;;16.20;83.20;;;;;;5074543;28;20025;-12
2022/06/01 03:41:04;;;;;;;31.40;17.73;;;16.20;83.30;;;;;;5073950;28;20021;-13
2022/06/01 03:43:30;;;;;;;26.13;14.40;;;16.20;83.10;;;;;;5074121;28;20469;-12
2022/06/01 03:45:58;;;;;;;19.33;12.95;;;16.30;83.40;;;;;;5073798;28;20117;-12
2022/06/01 03:48:30;;;;;;;17.80;11.90;;;16.30;83.40;;;;;;5073619;28;20025;-11
2022/06/01 03:50:59;;;;;;;21.25;12.75;;;16.20;83.30;;;;;;5072693;28;20094;-13
2022/06/01 03:53:29;;;;;;;20.65;11.20;;;16.20;83.40;;;;;;5074085;28;20093;-13
2022/06/01 03:55:55;;;;;;;16.83;11.82;;;16.20;83.20;;;;;;5074483;28;20500;-12
2022/06/01 03:58:23;;;;;;;21.60;13.57;;;16.20;83.10;;;;;;5073448;28;20119;-13
2022/06/01 04:00:51;;;;;;;32.42;20.73;;;16.30;83.30;;;;;;5072415;28;20028;-12
2022/06/01 04:03:18;;;;;;;25.52;16.85;;;16.30;83.20;;;;;;5074196;28;20017;-13
2022/06/01 04:05:44;;;;;;;23.42;15.65;;;16.30;83.40;;;;;;5073592;28;20031;-13
2022/06/01 04:08:10;;;;;;;20.85;14.57;;;16.40;83.60;;;;;;5073797;28;20028;-12
2022/06/01 04:10:39;;;;;;;30.15;18.70;;;16.40;83.80;;;;;;5071929;28;20036;-12
2022/06/01 04:13:05;;;;;;;25.73;16.08;;;16.40;84.20;;;;;;5073703;28;20028;-12
2022/06/01 04:15:31;;;;;;;31.27;19.00;;;16.50;84.30;;;;;;5073592;28;20029;-12
2022/06/01 04:17:57;;;;;;;25.73;16.30;;;16.50;84.40;;;;;;5072993;28;20017;-11
2022/06/01 04:20:23;;;;;;;27.48;18.27;;;16.60;84.70;;;;;;5073145;28;20093;-12
2022/06/01 04:22:53;;;;;;;31.33;20.58;;;16.70;85.20;;;;;;5073270;28;20028;-12
2022/06/01 04:25:21;;;;;;;32.17;19.20;;;16.70;86.10;;;;;;5073588;28;20033;-12
2022/06/01 04:27:47;;;;;;;33.47;20.33;;;16.80;85.90;;;;;;5073511;28;20031;-12
2022/06/01 04:30:16;;;;;;;32.95;21.88;;;16.90;85.50;;;;;;5073225;28;20028;-12
2022/06/01 04:32:45;;;;;;;34.85;21.83;;;16.90;85.40;;;;;;5073280;28;20105;-12
2022/06/01 04:35:12;;;;;;;30.90;20.10;;;17.00;85.90;;;;;;5073140;28;20027;-13
2022/06/01 04:37:37;;;;;;;37.50;22.20;;;16.90;86.30;;;;;;5073195;28;20511;-13
2022/06/01 04:40:04;;;;;;;43.95;25.05;;;17.00;86.30;;;;;;5073354;28;20029;-13
2022/06/01 04:42:30;;;;;;;32.83;21.15;;;17.10;86.80;;;;;;5072842;28;20035;-11
2022/06/01 04:44:56;;;;;;;43.85;26.67;;;17.10;86.20;;;;;;5073323;28;20025;-12
2022/06/01 04:47:22;;;;;;;33.55;20.88;;;17.10;87.50;;;;;;5072908;28;20055;-13
2022/06/01 04:49:48;;;;;;;29.73;20.77;;;17.20;86.60;;;;;;5073830;28;20115;-13
2022/06/01 04:52:14;;;;;;;34.90;22.50;;;17.20;85.80;;;;;;5071605;28;20035;-14
2022/06/01 04:54:40;;;;;;;31.88;20.42;;;17.40;86.20;;;;;;5072914;28;20028;-13
2022/06/01 04:57:07;;;;;;;32.25;21.75;;;17.40;85.40;;;;;;5073150;28;20021;-11
2022/06/01 04:59:34;;;;;;;26.50;18.20;;;17.40;85.50;;;;;;5072918;28;20025;-13
2022/06/01 05:02:00;;;;;;;22.17;15.75;;;17.50;85.10;;;;;;5073402;28;20028;-13
2022/06/01 05:04:28;;;;;;;30.95;19.23;;;17.60;84.60;;;;;;5073298;28;20473;-13
2022/06/01 05:06:58;;;;;;;26.13;18.35;;;17.60;84.80;;;;;;5072796;28;20071;-12
2022/06/01 05:09:24;;;;;;;27.80;19.20;;;17.70;84.30;;;;;;5072813;28;20060;-12
2022/06/01 05:11:51;;;;;;;26.23;17.58;;;17.80;84.60;;;;;;5073049;28;20028;-13
2022/06/01 05:14:17;;;;;;;28.42;18.88;;;17.90;84.40;;;;;;5073025;28;20024;-13
2022/06/01 05:16:44;;;;;;;31.45;18.55;;;17.90;84.10;;;;;;5072607;28;20116;-13
2022/06/01 05:19:10;;;;;;;31.30;20.08;;;17.90;84.00;;;;;;5073101;28;20021;-12
2022/06/01 05:21:35;;;;;;;29.83;19.48;;;18.10;83.40;;;;;;5072990;28;20028;-13
2022/06/01 05:24:02;;;;;;;38.88;23.58;;;18.20;84.00;;;;;;5073008;28;20610;-12
2022/06/01 05:26:28;;;;;;;32.50;22.45;;;18.20;84.20;;;;;;5072209;28;20039;-12
2022/06/01 05:28:54;;;;;;;31.23;19.58;;;18.40;83.70;;;;;;5074066;28;20029;-12
2022/06/01 05:31:20;;;;;;;24.80;17.45;;;18.50;83.20;;;;;;5076748;28;20119;-14
2022/06/01 05:33:48;;;;;;;34.72;23.27;;;18.60;82.30;;;;;;5076376;28;20444;-12
2022/06/01 05:36:16;;;;;;;35.20;22.55;;;18.70;82.50;;;;;;5076534;28;20028;-12
2022/06/01 05:38:42;;;;;;;26.00;18.60;;;18.80;82.50;;;;;;5076881;28;20050;-12
2022/06/01 05:41:09;;;;;;;26.00;19.08;;;18.90;82.70;;;;;;5076173;28;20029;-13
2022/06/01 05:43:35;;;;;;;31.48;21.67;;;19.00;81.80;;;;;;5077135;28;20028;-13
2022/06/01 05:46:04;;;;;;;37.45;23.65;;;19.20;82.70;;;;;;5076016;28;20492;-13
2022/06/01 05:48:30;;;;;;;34.78;22.33;;;19.30;81.70;;;;;;5076231;28;20028;-12
2022/06/01 05:50:56;;;;;;;30.05;20.40;;;19.40;81.60;;;;;;5076133;28;20094;-12
2022/06/01 05:53:22;;;;;;;27.48;18.63;;;19.40;81.50;;;;;;5076323;28;20027;-13
2022/06/01 05:55:48;;;;;;;30.77;20.02;;;19.50;80.90;;;;;;5074728;28;20021;-12
2022/06/01 05:58:18;;;;;;;43.28;26.83;;;19.60;80.80;;;;;;5074578;28;20027;-11
2022/06/01 06:00:46;;;;;;;38.25;24.77;;;19.70;80.80;;;;;;5075992;28;20025;-12
2022/06/01 06:03:13;;;;;;;39.83;25.23;;;19.70;80.60;;;;;;5076134;28;20020;-12
2022/06/01 06:08:25;;;;;;;42.45;27.02;;;19.80;81.00;;;;;;5075991;28;20032;-13
2022/06/01 06:10:50;;;;;;;37.40;25.83;;;19.90;81.50;;;;;;5075706;28;20077;-12
2022/06/01 06:13:22;;;;;;;38.67;25.33;;;20.10;80.90;;;;;;5076140;28;20104;-12
2022/06/01 06:15:49;;;;;;;35.08;22.90;;;20.20;80.40;;;;;;5075848;28;20036;-11
2022/06/01 06:18:15;;;;;;;33.17;22.60;;;20.40;80.10;;;;;;5075671;28;20532;-12
2022/06/01 06:20:42;;;;;;;31.92;21.02;;;20.50;79.50;;;;;;5075577;28;20036;-12
2022/06/01 06:23:09;;;;;;;31.80;22.17;;;20.60;79.20;;;;;;5075943;28;20029;-12
2022/06/01 06:25:35;;;;;;;33.20;22.33;;;20.60;79.00;;;;;;5074156;28;20395;-12
2022/06/01 06:28:01;;;;;;;37.58;24.90;;;20.80;78.90;;;;;;5075671;28;20480;-12
2022/06/01 06:30:27;;;;;;;32.45;22.45;;;20.90;78.80;;;;;;5075253;28;20496;-13
2022/06/01 06:32:53;;;;;;;31.90;20.88;;;21.00;78.50;;;;;;5075394;28;20031;-12
2022/06/01 06:35:19;;;;;;;39.35;26.70;;;21.10;78.20;;;;;;5075332;28;20021;-12
2022/06/01 06:37:45;;;;;;;33.40;23.63;;;21.20;77.30;;;;;;5075430;28;20020;-13
2022/06/01 06:40:12;;;;;;;32.13;22.73;;;21.40;77.60;;;;;;5074710;28;20025;-13
2022/06/01 06:42:38;;;;;;;28.98;21.05;;;21.50;77.40;;;;;;5073707;28;20031;-13
2022/06/01 06:45:05;;;;;;;30.67;20.58;;;21.70;77.10;;;;;;5073898;28;20025;-13
2022/06/01 06:47:34;;;;;;;34.60;23.55;;;21.80;76.60;;;;;;5074954;28;20044;-12
2022/06/01 06:50:02;;;;;;;34.38;22.52;;;21.90;76.10;;;;;;5075065;28;20021;-12
2022/06/01 06:52:28;;;;;;;28.08;20.42;;;22.10;75.70;;;;;;5075062;28;20062;-11
2022/06/01 06:54:54;;;;;;;36.70;26.05;;;22.30;75.50;;;;;;5074856;28;20591;-12
2022/06/01 06:57:20;;;;;;;32.47;21.15;;;22.40;75.20;;;;;;5075016;28;20074;-11
2022/06/01 06:59:48;;;;;;;36.17;23.70;;;22.50;74.80;;;;;;5074822;28;20559;-12
2022/06/01 07:02:16;;;;;;;33.58;23.17;;;22.70;73.90;;;;;;5074806;28;20542;-13
2022/06/01 07:04:44;;;;;;;27.83;19.83;;;22.80;73.40;;;;;;5075609;28;20129;-12
2022/06/01 07:07:10;;;;;;;29.60;21.00;;;22.80;73.40;;;;;;5075232;28;20025;-12
2022/06/01 07:09:35;;;;;;;28.30;19.35;;;22.90;73.50;;;;;;5074851;28;20063;-12
2022/06/01 07:12:01;;;;;;;26.92;19.58;;;23.10;73.20;;;;;;5074796;28;20060;-12
2022/06/01 07:14:27;;;;;;;31.63;21.63;;;23.30;72.90;;;;;;5074690;28;20028;-13
2022/06/01 07:16:53;;;;;;;24.63;17.70;;;23.40;72.50;;;;;;5074924;28;20119;-12
2022/06/01 07:19:19;;;;;;;29.38;20.77;;;23.70;72.10;;;;;;5074485;28;20028;-11
2022/06/01 07:21:45;;;;;;;34.53;23.25;;;23.90;70.30;;;;;;5074728;28;20029;-13
2022/06/01 07:24:11;;;;;;;33.03;22.65;;;24.00;69.60;;;;;;5074353;28;20029;-12
2022/06/01 07:26:39;;;;;;;32.20;23.00;;;24.20;69.50;;;;;;5074207;28;20055;-11
2022/06/01 07:29:06;;;;;;;34.70;21.60;;;24.40;69.00;;;;;;5074281;28;20032;-12
2022/06/01 07:31:33;;;;;;;28.55;18.83;;;24.50;68.60;;;;;;5073038;28;20074;-12
2022/06/01 07:33:59;;;;;;;25.25;16.85;;;24.70;68.30;;;;;;5074480;28;20028;-12
2022/06/01 07:36:26;;;;;;;24.92;18.13;;;24.80;68.10;;;;;;5074025;28;20026;-12
2022/06/01 07:44:28;;;;;;;25.75;19.08;;;24.90;67.80;;;;;;5074422;28;20123;-11
2022/06/01 07:46:54;;;;;;;24.27;16.17;;;24.90;67.30;;;;;;5073896;28;20037;-13
2022/06/01 07:49:20;;;;;;;28.85;19.88;;;25.10;67.70;;;;;;5072927;28;20070;-12
2022/06/01 07:51:47;;;;;;;30.25;20.95;;;25.30;66.70;;;;;;5073480;28;20029;-12
2022/06/01 07:54:14;;;;;;;26.75;19.05;;;25.40;65.60;;;;;;5073789;28;20063;-12
2022/06/01 07:56:41;;;;;;;29.83;20.35;;;25.60;65.70;;;;;;5073533;28;20385;-13
2022/06/01 07:59:08;;;;;;;21.98;15.95;;;25.80;64.80;;;;;;5074331;28;20028;-12
2022/06/01 08:01:35;;;;;;;23.52;14.38;;;26.00;64.80;;;;;;5073666;28;20029;-13
2022/06/01 08:04:03;;;;;;;24.35;16.20;;;26.30;64.00;;;;;;5073599;28;20066;-13
2022/06/01 08:06:31;;;;;;;22.52;16.08;;;26.40;62.60;;;;;;5072109;28;20482;-13
2022/06/01 08:08:57;;;;;;;23.55;15.13;;;26.40;62.20;;;;;;5074153;28;20488;-12
2022/06/01 08:14:10;;;;;;;19.77;14.07;;;26.50;62.10;;;;;;5073797;28;20462;-12
2022/06/01 08:16:38;;;;;;;25.70;18.50;;;26.80;61.80;;;;;;5073287;28;20024;-12
2022/06/01 08:19:05;;;;;;;22.15;16.00;;;27.10;60.50;;;;;;5073415;28;20025;-12
2022/06/01 08:21:33;;;;;;;27.40;18.63;;;27.10;60.40;;;;;;5073617;28;20033;-12
2022/06/01 08:23:59;;;;;;;27.95;19.08;;;27.20;60.50;;;;;;5073596;28;20126;-9
2022/06/01 08:26:25;;;;;;;23.17;17.38;;;27.40;60.40;;;;;;5072967;28;20036;-9
2022/06/01 08:28:51;;;;;;;22.50;15.80;;;27.50;59.90;;;;;;5073736;28;20024;-9
2022/06/01 08:31:17;;;;;;;22.88;16.90;;;27.80;59.60;;;;;;5073589;28;20070;-9
2022/06/01 08:33:43;;;;;;;24.67;18.30;;;28.10;59.50;;;;;;5073529;28;20029;-9
2022/06/01 08:36:09;;;;;;;23.45;17.63;;;28.40;57.90;;;;;;5073282;28;20028;-11
2022/06/01 08:38:36;;;;;;;26.23;17.60;;;28.70;56.50;;;;;;5071691;28;20029;-11
2022/06/01 08:41:09;;;;;;;25.77;18.85;;;28.90;54.70;;;;;;5073392;28;20020;-11
2022/06/01 08:43:46;;;;;;;26.33;19.25;;;29.10;55.70;;;;;;5073483;28;20032;-11
2022/06/01 08:46:14;;;;;;;25.23;19.90;;;29.40;55.30;;;;;;5072842;28;20048;-12
2022/06/01 08:48:56;;;;;;;27.48;21.10;;;29.50;55.10;;;;;;5073340;28;20107;-11
2022/06/01 08:51:25;;;;;;;19.23;15.35;;;29.60;53.10;;;;;;5073088;28;20085;-12
2022/06/01 08:53:51;;;;;;;22.10;16.35;;;29.70;54.60;;;;;;5073299;28;20029;-13
2022/06/01 08:56:26;;;;;;;21.77;15.23;;;29.80;54.00;;;;;;5072706;28;20500;-12
2022/06/01 08:59:11;;;;;;;21.25;13.43;;;30.00;53.10;;;;;;5073310;28;20021;-11
2022/06/01 09:01:44;;;;;;;23.42;14.65;;;30.10;52.80;;;;;;5073301;28;20560;-12
2022/06/01 09:04:25;;;;;;;;;;;30.10;51.80;;;;;;5076879;28;20033;-12
2022/06/01 09:07:04;;;;;;;16.85;12.95;;;29.90;51.40;;;;;;5077304;28;19908;-12
2022/06/01 09:09:32;;;;;;;28.23;20.63;;;29.60;53.20;;;;;;5077010;28;20115;-11
2022/06/01 09:11:59;;;;;;;24.05;19.33;;;29.70;53.20;;;;;;5075826;28;20089;-12
2022/06/01 09:14:29;;;;;;;18.95;14.35;;;29.80;53.20;;;;;;5076693;28;20029;-12
2022/06/01 09:16:57;;;;;;;20.33;15.77;;;30.10;53.10;;;;;;5077213;28;20480;-12
2022/06/01 09:22:37;;;;;;;17.17;14.65;;;30.50;52.20;;;;;;5077052;28;20027;-12
2022/06/01 09:22:38;;;;;;;19.77;16.25;;;30.80;51.50;;;;;;5076517;28;20041;-11
2022/06/01 09:25:07;;;;;;;20.65;15.23;;;30.80;51.10;;;;;;5077263;28;20452;-12
2022/06/01 09:27:38;;;;;;;19.15;15.30;;;30.70;51.50;;;;;;5076575;28;20035;-12
2022/06/01 09:30:33;;;;;;;25.73;15.68;;;30.40;51.90;;;;;;5076630;28;20111;-12
2022/06/01 09:33:12;;;;;;;22.13;14.30;;;30.20;51.70;;;;;;5076547;28;20366;-11
2022/06/01 09:35:43;;;;;;;18.40;13.68;;;29.90;52.90;;;;;;5076778;28;20028;-12
2022/06/01 09:38:38;;;;;;;20.95;16.02;;;29.70;53.30;;;;;;5075186;28;20506;-11
2022/06/01 09:41:09;;;;;;;22.55;16.10;;;29.50;52.90;;;;;;5076638;28;20035;-12
2022/06/01 09:43:47;;;;;;;19.45;15.80;;;29.20;54.00;;;;;;5076939;28;20028;-11
2022/06/01 09:46:33;;;;;;;17.77;14.50;;;28.90;54.40;;;;;;5076198;28;20051;-12
2022/06/01 09:49:04;;;;;;;17.08;12.02;;;28.70;54.70;;;;;;5076608;28;20032;-11
2022/06/01 09:51:34;;;;;;;22.40;15.98;;;28.60;55.20;;;;;;5076191;28;20029;-12
2022/06/01 09:54:24;;;;;;;21.17;13.90;;;28.50;55.00;;;;;;5076055;28;20029;-12
2022/06/01 09:56:53;;;;;;;19.02;14.63;;;28.50;54.60;;;;;;5076015;28;20075;-12
2022/06/01 10:08:25;;;;;;;26.17;19.53;;;28.60;54.60;;;;;;5076024;28;20074;-11
2022/06/01 10:11:01;;;;;;;22.10;16.23;;;28.80;54.80;;;;;;5075819;28;20515;-12
2022/06/01 10:13:46;;;;;;;19.08;14.05;;;29.20;54.00;;;;;;5076047;28;20039;-11
2022/06/01 10:16:29;;;;;;;23.05;15.45;;;29.70;53.50;;;;;;5075367;28;20016;-11
2022/06/01 10:18:59;;;;;;;23.42;18.45;;;30.40;52.30;;;;;;5076034;28;20051;-13
2022/06/01 10:21:34;;;;;;;23.05;17.33;;;31.10;48.00;;;;;;5075700;28;20021;-11
2022/06/01 10:24:15;;;;;;;22.40;16.15;;;31.50;49.10;;;;;;5075925;28;20025;-12
2022/06/01 10:26:48;;;;;;;18.60;12.52;;;31.80;48.30;;;;;;5075656;28;20020;-11
2022/06/01 10:29:19;;;;;;;19.25;14.07;;;31.90;48.00;;;;;;5075880;28;20039;-12
2022/06/01 10:31:53;;;;;;;22.73;15.50;;;32.00;47.20;;;;;;5075766;28;20056;-11
2022/06/01 10:34:27;;;;;;;19.95;13.98;;;32.00;47.00;;;;;;5075425;28;20075;-11
2022/06/01 10:36:59;;;;;;;17.65;11.80;;;32.20;44.60;;;;;;5074570;28;20056;-11
2022/06/01 10:39:52;;;;;;;25.63;17.20;;;32.70;45.40;;;;;;5075358;28;20492;-12
2022/06/01 10:42:21;;;;;;;21.77;15.73;;;32.90;44.70;;;;;;5075137;28;20439;-11
2022/06/01 10:45:08;;;;;;;19.80;13.27;;;33.00;44.00;;;;;;5076065;28;20033;-13
2022/06/01 10:48:07;;;;;;;14.35;10.98;;;33.10;43.90;;;;;;5074794;28;20542;-12
2022/06/01 10:50:49;;;;;;;22.58;16.75;;;33.40;41.10;;;;;;5074865;28;20481;-12
2022/06/01 10:53:22;;;;;;;18.90;12.87;;;33.70;41.00;;;;;;5075274;28;20074;-13
2022/06/01 10:55:48;;;;;;;21.33;14.38;;;33.40;40.70;;;;;;5074900;28;20036;-12
2022/06/01 10:58:24;;;;;;;21.75;15.73;;;33.00;40.70;;;;;;5075063;28;20029;-11
2022/06/01 11:00:56;;;;;;;13.40;8.60;;;32.50;41.50;;;;;;5074913;28;20374;-12
2022/06/01 11:03:43;;;;;;;11.32;9.25;;;32.30;43.10;;;;;;5075149;28;20051;-12
2022/06/01 11:06:42;;;;;;;12.15;8.50;;;32.90;43.10;;;;;;5075083;28;20020;-12
2022/06/01 11:09:39;;;;;;;18.48;10.32;;;33.90;41.70;;;;;;5074685;28;20074;-11
2022/06/01 11:12:05;;;;;;;15.35;12.38;;;34.50;38.80;;;;;;5074923;28;20033;-11
2022/06/01 11:14:39;;;;;;;13.63;8.13;;;35.00;38.60;;;;;;5074504;28;20037;-11
2022/06/01 11:17:25;;;;;;;15.52;10.40;;;35.30;38.60;;;;;;5074615;28;20059;-13
2022/06/01 11:20:05;;;;;;;15.95;11.65;;;35.50;37.20;;;;;;5074868;28;20027;-13
2022/06/01 11:22:34;;;;;;;10.18;7.28;;;35.50;36.60;;;;;;5074256;28;20454;-12
2022/06/01 11:25:41;;;;;;;15.75;10.50;;;35.80;36.70;;;;;;5074329;28;20492;-12
2022/06/01 11:28:31;;;;;;;12.93;9.00;;;36.00;35.20;;;;;;5050796;28;20048;-13
2022/06/01 11:31:06;;;;;;;11.80;8.50;;;36.00;35.60;;;;;;5074275;28;20024;-13
2022/06/01 11:33:43;;;;;;;10.82;8.60;;;36.00;35.60;;;;;;5074584;28;20073;-13
2022/06/01 11:36:36;;;;;;;10.70;7.65;;;36.10;35.80;;;;;;5074544;28;20020;-12
2022/06/01 11:39:12;;;;;;;8.15;5.38;;;36.40;34.20;;;;;;5074085;28;20025;-12
2022/06/01 11:41:41;;;;;;;10.85;7.30;;;36.30;36.70;;;;;;5074014;28;20028;-12
2022/06/01 11:44:15;;;;;;;11.10;8.38;;;36.10;36.80;;;;;;5074307;28;20036;-11
2022/06/01 11:46:49;;;;;;;9.95;6.75;;;36.20;35.80;;;;;;5074064;28;20080;-11
2022/06/01 11:49:37;;;;;;;10.00;6.60;;;36.20;36.00;;;;;;5073988;28;20614;-11
2022/06/01 11:52:24;;;;;;;10.05;7.47;;;36.00;35.10;;;;;;5074233;28;20033;-11
2022/06/01 11:55:20;;;;;;;11.25;7.75;;;35.90;36.50;;;;;;5074313;28;20031;-12
2022/06/01 11:57:53;;;;;;;8.68;7.40;;;36.20;35.80;;;;;;5073735;28;20487;-11
2022/06/01 12:00:41;;;;;;;10.80;8.70;;;36.20;35.90;;;;;;5074173;28;20486;-11
2022/06/01 12:03:25;;;;;;;10.95;7.50;;;36.00;35.80;;;;;;5073279;28;20486;-11
2022/06/01 12:05:59;;;;;;;10.02;7.53;;;35.60;36.70;;;;;;5073946;28;20025;-11
2022/06/01 12:08:32;;;;;;;10.48;7.35;;;35.40;37.40;;;;;;5073299;28;20040;-12
2022/06/01 12:11:04;;;;;;;12.30;7.93;;;35.10;37.60;;;;;;5073739;28;20020;-11
2022/06/01 12:13:35;;;;;;;10.48;7.63;;;35.20;37.80;;;;;;5073498;28;20035;-12
2022/06/01 12:16:21;;;;;;;17.40;11.93;;;35.40;38.30;;;;;;5074101;28;20017;-14
2022/06/01 12:19:06;;;;;;;14.55;10.52;;;34.90;38.90;;;;;;5073702;28;20024;-11
2022/06/01 12:21:32;;;;;;;13.68;9.60;;;34.70;39.10;;;;;;5073678;28;20032;-12
2022/06/01 12:30:10;;;;;;;;;;;35.70;37.50;;;;;;5074050;28;20031;-13
2022/06/01 12:33:05;;;;;;;13.77;8.48;;;36.00;36.70;;;;;;5069615;28;19904;-13
2022/06/01 12:35:37;;;;;;;11.60;8.68;;;36.20;37.60;;;;;;5073256;28;20438;-13
2022/06/01 12:38:06;;;;;;;;;;;36.40;36.20;;;;;;5073691;28;20100;-12
2022/06/01 12:40:33;;;;;;;9.68;7.32;;;36.20;36.50;;;;;;5072947;28;19991;-12
2022/06/01 12:43:02;;;;;;;15.00;9.43;;;36.30;36.90;;;;;;5073463;28;20033;-12
2022/06/01 12:45:37;;;;;;;12.57;7.60;;;36.10;37.60;;;;;;5073435;28;20021;-11
2022/06/01 12:48:19;;;;;;;16.75;9.02;;;35.90;37.40;;;;;;5073062;28;20102;-12
2022/06/01 12:50:56;;;;;;;12.45;8.18;;;35.40;38.10;;;;;;5073098;28;20050;-13
2022/06/01 12:53:24;;;;;;;12.95;7.30;;;35.10;38.80;;;;;;5073105;28;20467;-12
2022/06/01 12:56:09;;;;;;;11.48;7.43;;;34.70;38.80;;;;;;5073243;28;20128;-12
2022/06/01 12:58:36;;;;;;;10.77;6.50;;;34.40;39.40;;;;;;5073196;28;20029;-12
2022/06/01 13:01:03;;;;;;;8.82;6.63;;;33.90;40.20;;;;;;5073332;28;20052;-12
2022/06/01 13:03:33;;;;;;;13.05;6.18;;;33.80;40.80;;;;;;5072949;28;20033;-12
2022/06/01 13:06:10;;;;;;;10.73;6.93;;;33.90;41.20;;;;;;5073321;28;20020;-12
2022/06/01 13:08:40;;;;;;;12.45;7.57;;;34.00;40.30;;;;;;5072835;28;20094;-13
2022/06/01 13:11:25;;;;;;;11.95;6.57;;;33.90;40.90;;;;;;5073205;28;20020;-12
2022/06/01 13:13:51;;;;;;;11.35;6.50;;;33.50;41.30;;;;;;5073235;28;20063;-11
2022/06/01 13:16:21;;;;;;;11.88;5.95;;;33.20;42.00;;;;;;5072897;28;20028;-11
2022/06/01 13:18:49;;;;;;;10.25;5.60;;;33.20;42.00;;;;;;5073131;28;20028;-12
2022/06/01 13:21:18;;;;;;;11.60;6.13;;;33.10;42.10;;;;;;5073549;28;20029;-11